首页
METAR-TAF:

METAR-TAF

机场 :

戈尔甘, 伊朗

纬度: 36-49N, 经度: 054-28E, 海拔: 155米

当前天气观测

该预报发布于1小时和9分钟前的08:00 UTC
风速6节,风向西
温度 24°C
湿度 54%
气压 1024 hPa
能见度10公里或以上
1500米以下无云,无积雨云

METAR: OING 170800Z 26006KT CAVOK 24/14 Q1024

时间: 12:39 (09:09 UTC)


TAF: 丢失

超过4000个机场的气象观测和天气预报(METAR&TAF报告)。

可查询的气象台以黄色和红色小点在地图上表示。

将鼠标移到小点上方,可查看气象台名称。

然后点击查看天气观测和预报。

如需切换地图:点击带黑十字的绿色按钮放大地图;点击带横线的绿色按钮缩小地图;或者点击绿色箭头查看邻近地区的地图。


METAR-TAF: